sensor_id;sensor_type;location;lat;lon;timestamp;temperature;humidity
16417;DHT22;8317;52.186;5.688;2023-07-29T00:00:41;19.00;99.90
16417;DHT22;8317;52.186;5.688;2023-07-29T00:03:08;19.00;99.90
16417;DHT22;8317;52.186;5.688;2023-07-29T00:05:36;18.90;99.90
16417;DHT22;8317;52.186;5.688;2023-07-29T00:08:03;18.90;99.90
16417;DHT22;8317;52.186;5.688;2023-07-29T00:10:34;18.80;99.90
16417;DHT22;8317;52.186;5.688;2023-07-29T00:13:02;18.80;99.90
16417;DHT22;8317;52.186;5.688;2023-07-29T00:15:29;18.80;99.90
16417;DHT22;8317;52.186;5.688;2023-07-29T00:17:56;18.70;99.90
16417;DHT22;8317;52.186;5.688;2023-07-29T00:20:23;18.70;99.90
16417;DHT22;8317;52.186;5.688;2023-07-29T00:22:50;18.70;99.90
16417;DHT22;8317;52.186;5.688;2023-07-29T00:25:19;18.70;99.90
16417;DHT22;8317;52.186;5.688;2023-07-29T00:27:47;18.70;99.90
16417;DHT22;8317;52.186;5.688;2023-07-29T00:30:14;18.70;99.90
16417;DHT22;8317;52.186;5.688;2023-07-29T00:32:41;18.60;99.90
16417;DHT22;8317;52.186;5.688;2023-07-29T00:35:08;18.60;99.90
16417;DHT22;8317;52.186;5.688;2023-07-29T00:37:35;18.50;99.90
16417;DHT22;8317;52.186;5.688;2023-07-29T00:40:04;18.50;99.90
16417;DHT22;8317;52.186;5.688;2023-07-29T00:42:31;18.40;99.90
16417;DHT22;8317;52.186;5.688;2023-07-29T00:44:59;18.40;99.90
16417;DHT22;8317;52.186;5.688;2023-07-29T00:47:26;18.40;99.90
16417;DHT22;8317;52.186;5.688;2023-07-29T00:49:53;18.40;99.90
16417;DHT22;8317;52.186;5.688;2023-07-29T00:52:20;18.30;99.90
16417;DHT22;8317;52.186;5.688;2023-07-29T00:54:46;18.30;99.90
16417;DHT22;8317;52.186;5.688;2023-07-29T00:57:14;18.20;99.90
16417;DHT22;8317;52.186;5.688;2023-07-29T00:59:41;18.20;99.90
16417;DHT22;8317;52.186;5.688;2023-07-29T01:02:10;18.30;99.90
16417;DHT22;8317;52.186;5.688;2023-07-29T01:04:37;18.30;99.90
16417;DHT22;8317;52.186;5.688;2023-07-29T01:07:09;18.30;99.90
16417;DHT22;8317;52.186;5.688;2023-07-29T01:09:45;18.20;99.90
16417;DHT22;8317;52.186;5.688;2023-07-29T01:12:20;18.20;99.90
16417;DHT22;8317;52.186;5.688;2023-07-29T01:14:55;18.10;99.90
16417;DHT22;8317;52.186;5.688;2023-07-29T01:17:30;18.10;99.90
16417;DHT22;8317;52.186;5.688;2023-07-29T01:20:01;18.20;99.90
16417;DHT22;8317;52.186;5.688;2023-07-29T01:22:32;18.20;99.90
16417;DHT22;8317;52.186;5.688;2023-07-29T01:25:01;18.20;99.90
16417;DHT22;8317;52.186;5.688;2023-07-29T01:27:28;18.20;99.90
16417;DHT22;8317;52.186;5.688;2023-07-29T01:29:56;18.10;99.90
16417;DHT22;8317;52.186;5.688;2023-07-29T01:32:28;18.10;99.90
16417;DHT22;8317;52.186;5.688;2023-07-29T01:35:03;18.00;99.90
16417;DHT22;8317;52.186;5.688;2023-07-29T01:37:33;17.90;99.90
16417;DHT22;8317;52.186;5.688;2023-07-29T01:40:02;17.90;99.90
16417;DHT22;8317;52.186;5.688;2023-07-29T01:42:30;17.90;99.90
16417;DHT22;8317;52.186;5.688;2023-07-29T01:44:57;17.90;99.90
16417;DHT22;8317;52.186;5.688;2023-07-29T01:47:24;17.90;99.90
16417;DHT22;8317;52.186;5.688;2023-07-29T01:49:51;18.00;99.90
16417;DHT22;8317;52.186;5.688;2023-07-29T01:52:18;17.90;99.90
16417;DHT22;8317;52.186;5.688;2023-07-29T01:54:45;17.90;99.90
16417;DHT22;8317;52.186;5.688;2023-07-29T01:57:13;17.90;99.90
16417;DHT22;8317;52.186;5.688;2023-07-29T01:59:40;18.00;99.90
16417;DHT22;8317;52.186;5.688;2023-07-29T02:02:07;18.00;99.90
16417;DHT22;8317;52.186;5.688;2023-07-29T02:04:34;18.00;99.90
16417;DHT22;8317;52.186;5.688;2023-07-29T02:07:01;18.00;99.90
16417;DHT22;8317;52.186;5.688;2023-07-29T02:09:27;18.00;99.90
16417;DHT22;8317;52.186;5.688;2023-07-29T02:11:54;18.00;99.90
16417;DHT22;8317;52.186;5.688;2023-07-29T02:14:23;17.90;99.90
16417;DHT22;8317;52.186;5.688;2023-07-29T02:16:50;17.90;99.90
16417;DHT22;8317;52.186;5.688;2023-07-29T02:19:17;18.00;99.90
16417;DHT22;8317;52.186;5.688;2023-07-29T02:21:44;18.00;99.90
16417;DHT22;8317;52.186;5.688;2023-07-29T02:24:11;18.00;99.90
16417;DHT22;8317;52.186;5.688;2023-07-29T02:26:38;18.00;99.90
16417;DHT22;8317;52.186;5.688;2023-07-29T02:29:04;18.10;99.90
16417;DHT22;8317;52.186;5.688;2023-07-29T02:31:33;18.00;99.90
16417;DHT22;8317;52.186;5.688;2023-07-29T02:34:02;18.00;99.90
16417;DHT22;8317;52.186;5.688;2023-07-29T02:36:29;18.00;99.90
16417;DHT22;8317;52.186;5.688;2023-07-29T02:38:56;18.10;99.90
16417;DHT22;8317;52.186;5.688;2023-07-29T02:41:23;18.10;99.90
16417;DHT22;8317;52.186;5.688;2023-07-29T02:43:51;18.10;99.90
16417;DHT22;8317;52.186;5.688;2023-07-29T02:46:17;18.00;99.90
16417;DHT22;8317;52.186;5.688;2023-07-29T02:48:46;18.00;99.90
16417;DHT22;8317;52.186;5.688;2023-07-29T02:51:13;18.00;99.90
16417;DHT22;8317;52.186;5.688;2023-07-29T02:53:40;18.00;99.90
16417;DHT22;8317;52.186;5.688;2023-07-29T02:56:07;18.00;99.90
16417;DHT22;8317;52.186;5.688;2023-07-29T02:58:35;18.00;99.90
16417;DHT22;8317;52.186;5.688;2023-07-29T03:01:01;18.00;99.90
16417;DHT22;8317;52.186;5.688;2023-07-29T03:03:29;18.00;99.90
16417;DHT22;8317;52.186;5.688;2023-07-29T03:05:59;18.00;99.90
16417;DHT22;8317;52.186;5.688;2023-07-29T03:08:26;18.00;99.90
16417;DHT22;8317;52.186;5.688;2023-07-29T03:10:54;17.90;99.90
16417;DHT22;8317;52.186;5.688;2023-07-29T03:13:21;17.90;99.90
16417;DHT22;8317;52.186;5.688;2023-07-29T03:15:47;17.80;99.90
16417;DHT22;8317;52.186;5.688;2023-07-29T03:18:14;17.70;99.90
16417;DHT22;8317;52.186;5.688;2023-07-29T03:20:41;17.70;99.90
16417;DHT22;8317;52.186;5.688;2023-07-29T03:23:09;17.70;99.90
16417;DHT22;8317;52.186;5.688;2023-07-29T03:25:36;17.70;99.90
16417;DHT22;8317;52.186;5.688;2023-07-29T03:28:04;17.70;99.90
16417;DHT22;8317;52.186;5.688;2023-07-29T03:30:30;17.70;99.90
16417;DHT22;8317;52.186;5.688;2023-07-29T03:32:57;17.70;99.90
16417;DHT22;8317;52.186;5.688;2023-07-29T03:35:24;17.70;99.90
16417;DHT22;8317;52.186;5.688;2023-07-29T03:37:51;17.70;99.90
16417;DHT22;8317;52.186;5.688;2023-07-29T03:40:19;17.70;99.90
16417;DHT22;8317;52.186;5.688;2023-07-29T03:42:46;17.70;99.90
16417;DHT22;8317;52.186;5.688;2023-07-29T03:45:13;17.70;99.90
16417;DHT22;8317;52.186;5.688;2023-07-29T03:47:40;17.60;99.90
16417;DHT22;8317;52.186;5.688;2023-07-29T03:50:08;17.60;99.90
16417;DHT22;8317;52.186;5.688;2023-07-29T03:52:35;17.60;99.90
16417;DHT22;8317;52.186;5.688;2023-07-29T03:55:02;17.60;99.90
16417;DHT22;8317;52.186;5.688;2023-07-29T03:57:30;17.60;99.90
16417;DHT22;8317;52.186;5.688;2023-07-29T03:59:57;17.60;99.90
16417;DHT22;8317;52.186;5.688;2023-07-29T04:02:24;17.60;99.90
16417;DHT22;8317;52.186;5.688;2023-07-29T04:04:51;17.60;99.90
16417;DHT22;8317;52.186;5.688;2023-07-29T04:07:18;17.60;99.90
16417;DHT22;8317;52.186;5.688;2023-07-29T04:09:45;17.50;99.90
16417;DHT22;8317;52.186;5.688;2023-07-29T04:12:11;17.50;99.90
16417;DHT22;8317;52.186;5.688;2023-07-29T04:14:40;17.50;99.90
16417;DHT22;8317;52.186;5.688;2023-07-29T04:17:07;17.60;99.90
16417;DHT22;8317;52.186;5.688;2023-07-29T04:19:34;17.60;99.90
16417;DHT22;8317;52.186;5.688;2023-07-29T04:22:01;17.60;99.90
16417;DHT22;8317;52.186;5.688;2023-07-29T04:24:28;17.50;99.90
16417;DHT22;8317;52.186;5.688;2023-07-29T04:26:55;17.50;99.90
16417;DHT22;8317;52.186;5.688;2023-07-29T04:29:22;17.40;99.90
16417;DHT22;8317;52.186;5.688;2023-07-29T04:31:50;17.50;99.90
16417;DHT22;8317;52.186;5.688;2023-07-29T04:34:18;17.50;99.90
16417;DHT22;8317;52.186;5.688;2023-07-29T04:36:45;17.50;99.90
16417;DHT22;8317;52.186;5.688;2023-07-29T04:39:12;17.50;99.90
16417;DHT22;8317;52.186;5.688;2023-07-29T04:41:39;17.50;99.90
16417;DHT22;8317;52.186;5.688;2023-07-29T04:44:06;17.40;99.90
16417;DHT22;8317;52.186;5.688;2023-07-29T04:46:33;17.40;99.90
16417;DHT22;8317;52.186;5.688;2023-07-29T04:49:01;17.50;99.90
16417;DHT22;8317;52.186;5.688;2023-07-29T04:51:29;17.50;99.90
16417;DHT22;8317;52.186;5.688;2023-07-29T04:53:57;17.40;99.90
16417;DHT22;8317;52.186;5.688;2023-07-29T04:56:24;17.40;99.90
16417;DHT22;8317;52.186;5.688;2023-07-29T04:58:51;17.40;99.90
16417;DHT22;8317;52.186;5.688;2023-07-29T05:01:18;17.40;99.90
16417;DHT22;8317;52.186;5.688;2023-07-29T05:03:44;17.40;99.90
16417;DHT22;8317;52.186;5.688;2023-07-29T05:06:13;17.40;99.90
16417;DHT22;8317;52.186;5.688;2023-07-29T05:08:40;17.40;99.90
16417;DHT22;8317;52.186;5.688;2023-07-29T05:11:07;17.40;99.90
16417;DHT22;8317;52.186;5.688;2023-07-29T05:13:33;17.40;99.90
16417;DHT22;8317;52.186;5.688;2023-07-29T05:16:00;17.50;99.90
16417;DHT22;8317;52.186;5.688;2023-07-29T05:18:27;17.50;99.90
16417;DHT22;8317;52.186;5.688;2023-07-29T05:20:54;17.50;99.90
16417;DHT22;8317;52.186;5.688;2023-07-29T05:23:22;17.50;99.90
16417;DHT22;8317;52.186;5.688;2023-07-29T05:25:50;17.50;99.90
16417;DHT22;8317;52.186;5.688;2023-07-29T05:28:17;17.60;99.90
16417;DHT22;8317;52.186;5.688;2023-07-29T05:30:44;17.60;99.90
16417;DHT22;8317;52.186;5.688;2023-07-29T05:33:10;17.60;99.90
16417;DHT22;8317;52.186;5.688;2023-07-29T05:35:37;17.60;99.90
16417;DHT22;8317;52.186;5.688;2023-07-29T05:38:04;17.70;99.90
16417;DHT22;8317;52.186;5.688;2023-07-29T05:40:35;17.70;99.90
16417;DHT22;8317;52.186;5.688;2023-07-29T05:43:02;17.70;99.90
16417;DHT22;8317;52.186;5.688;2023-07-29T05:45:29;17.70;99.90
16417;DHT22;8317;52.186;5.688;2023-07-29T05:47:57;17.70;99.90
16417;DHT22;8317;52.186;5.688;2023-07-29T05:50:24;17.70;99.90
16417;DHT22;8317;52.186;5.688;2023-07-29T05:52:50;17.70;99.90
16417;DHT22;8317;52.186;5.688;2023-07-29T05:55:17;17.70;99.90
16417;DHT22;8317;52.186;5.688;2023-07-29T05:57:46;17.70;99.90
16417;DHT22;8317;52.186;5.688;2023-07-29T06:00:12;17.70;99.90
16417;DHT22;8317;52.186;5.688;2023-07-29T06:02:39;17.70;99.90
16417;DHT22;8317;52.186;5.688;2023-07-29T06:05:07;17.70;99.90
16417;DHT22;8317;52.186;5.688;2023-07-29T06:07:34;17.70;99.90
16417;DHT22;8317;52.186;5.688;2023-07-29T06:10:01;17.70;99.90
16417;DHT22;8317;52.186;5.688;2023-07-29T06:12:28;17.80;99.90
16417;DHT22;8317;52.186;5.688;2023-07-29T06:14:56;17.90;99.90
16417;DHT22;8317;52.186;5.688;2023-07-29T06:17:23;18.00;99.90
16417;DHT22;8317;52.186;5.688;2023-07-29T06:19:50;18.00;99.90
16417;DHT22;8317;52.186;5.688;2023-07-29T06:22:17;18.10;99.90
16417;DHT22;8317;52.186;5.688;2023-07-29T06:24:43;18.20;99.90
16417;DHT22;8317;52.186;5.688;2023-07-29T06:27:10;18.30;99.90
16417;DHT22;8317;52.186;5.688;2023-07-29T06:29:37;18.30;99.90
16417;DHT22;8317;52.186;5.688;2023-07-29T06:32:06;18.30;99.90
16417;DHT22;8317;52.186;5.688;2023-07-29T06:34:33;18.40;99.90
16417;DHT22;8317;52.186;5.688;2023-07-29T06:37:00;18.50;99.90
16417;DHT22;8317;52.186;5.688;2023-07-29T06:39:27;18.50;99.90
16417;DHT22;8317;52.186;5.688;2023-07-29T06:41:54;18.70;99.90
16417;DHT22;8317;52.186;5.688;2023-07-29T06:44:21;18.80;99.90
16417;DHT22;8317;52.186;5.688;2023-07-29T06:46:48;18.90;99.90
16417;DHT22;8317;52.186;5.688;2023-07-29T06:49:16;19.10;99.90
16417;DHT22;8317;52.186;5.688;2023-07-29T06:51:43;19.10;99.90
16417;DHT22;8317;52.186;5.688;2023-07-29T06:54:10;19.10;99.90
16417;DHT22;8317;52.186;5.688;2023-07-29T06:56:36;19.30;99.90
16417;DHT22;8317;52.186;5.688;2023-07-29T06:59:03;19.50;99.90
16417;DHT22;8317;52.186;5.688;2023-07-29T07:01:30;19.60;99.90
16417;DHT22;8317;52.186;5.688;2023-07-29T07:03:57;19.60;99.90
16417;DHT22;8317;52.186;5.688;2023-07-29T07:06:25;19.40;99.90
16417;DHT22;8317;52.186;5.688;2023-07-29T07:08:52;19.40;99.90
16417;DHT22;8317;52.186;5.688;2023-07-29T07:11:19;19.30;99.90
16417;DHT22;8317;52.186;5.688;2023-07-29T07:13:46;19.40;99.90
16417;DHT22;8317;52.186;5.688;2023-07-29T07:16:13;19.60;99.90
16417;DHT22;8317;52.186;5.688;2023-07-29T07:18:40;19.50;99.90
16417;DHT22;8317;52.186;5.688;2023-07-29T07:21:07;19.40;99.90
16417;DHT22;8317;52.186;5.688;2023-07-29T07:23:35;19.30;99.90
16417;DHT22;8317;52.186;5.688;2023-07-29T07:26:02;19.20;99.90
16417;DHT22;8317;52.186;5.688;2023-07-29T07:28:29;19.20;99.90
16417;DHT22;8317;52.186;5.688;2023-07-29T07:30:56;19.30;99.90
16417;DHT22;8317;52.186;5.688;2023-07-29T07:33:23;19.30;99.90
16417;DHT22;8317;52.186;5.688;2023-07-29T07:35:50;19.40;99.90
16417;DHT22;8317;52.186;5.688;2023-07-29T07:38:17;19.40;99.90
16417;DHT22;8317;52.186;5.688;2023-07-29T07:40:53;19.30;99.90
16417;DHT22;8317;52.186;5.688;2023-07-29T07:43:21;19.30;99.90
16417;DHT22;8317;52.186;5.688;2023-07-29T07:45:48;19.40;99.90
16417;DHT22;8317;52.186;5.688;2023-07-29T07:48:15;19.30;99.90
16417;DHT22;8317;52.186;5.688;2023-07-29T07:50:42;19.20;99.90
16417;DHT22;8317;52.186;5.688;2023-07-29T07:53:09;19.30;99.90
16417;DHT22;8317;52.186;5.688;2023-07-29T07:55:36;19.40;99.90
16417;DHT22;8317;52.186;5.688;2023-07-29T07:58:04;19.40;99.90
16417;DHT22;8317;52.186;5.688;2023-07-29T08:00:31;19.60;99.90
16417;DHT22;8317;52.186;5.688;2023-07-29T08:02:58;19.60;99.90
16417;DHT22;8317;52.186;5.688;2023-07-29T08:05:25;19.60;99.90
16417;DHT22;8317;52.186;5.688;2023-07-29T08:07:52;19.60;99.90
16417;DHT22;8317;52.186;5.688;2023-07-29T08:10:19;19.60;99.90
16417;DHT22;8317;52.186;5.688;2023-07-29T08:12:46;19.50;99.90
16417;DHT22;8317;52.186;5.688;2023-07-29T08:15:14;19.50;99.90
16417;DHT22;8317;52.186;5.688;2023-07-29T08:17:41;19.40;99.90
16417;DHT22;8317;52.186;5.688;2023-07-29T08:20:08;19.40;99.90
16417;DHT22;8317;52.186;5.688;2023-07-29T08:22:36;19.50;99.90
16417;DHT22;8317;52.186;5.688;2023-07-29T08:25:03;19.60;99.90
16417;DHT22;8317;52.186;5.688;2023-07-29T08:27:30;19.70;99.90
16417;DHT22;8317;52.186;5.688;2023-07-29T08:29:57;19.80;99.90
16417;DHT22;8317;52.186;5.688;2023-07-29T08:32:25;19.90;99.90
16417;DHT22;8317;52.186;5.688;2023-07-29T08:34:52;19.90;99.90
16417;DHT22;8317;52.186;5.688;2023-07-29T08:37:18;19.90;99.90
16417;DHT22;8317;52.186;5.688;2023-07-29T08:39:45;20.00;99.90
16417;DHT22;8317;52.186;5.688;2023-07-29T08:42:13;19.90;99.90
16417;DHT22;8317;52.186;5.688;2023-07-29T08:44:42;19.90;99.90
16417;DHT22;8317;52.186;5.688;2023-07-29T08:47:09;20.10;99.90
16417;DHT22;8317;52.186;5.688;2023-07-29T08:49:38;20.40;99.90
16417;DHT22;8317;52.186;5.688;2023-07-29T08:52:07;20.70;99.90
16417;DHT22;8317;52.186;5.688;2023-07-29T08:54:34;21.10;99.90
16417;DHT22;8317;52.186;5.688;2023-07-29T08:57:01;21.20;99.90
16417;DHT22;8317;52.186;5.688;2023-07-29T08:59:29;21.20;99.90
16417;DHT22;8317;52.186;5.688;2023-07-29T09:01:56;21.00;99.90
16417;DHT22;8317;52.186;5.688;2023-07-29T09:04:24;20.70;99.90
16417;DHT22;8317;52.186;5.688;2023-07-29T09:06:54;20.60;99.90
16417;DHT22;8317;52.186;5.688;2023-07-29T09:09:22;20.50;99.90
16417;DHT22;8317;52.186;5.688;2023-07-29T09:11:49;20.30;99.90
16417;DHT22;8317;52.186;5.688;2023-07-29T09:14:16;20.30;99.90
16417;DHT22;8317;52.186;5.688;2023-07-29T09:16:43;20.30;99.90
16417;DHT22;8317;52.186;5.688;2023-07-29T09:19:10;20.30;99.90
16417;DHT22;8317;52.186;5.688;2023-07-29T09:21:38;20.20;99.90
16417;DHT22;8317;52.186;5.688;2023-07-29T09:24:07;20.20;99.90
16417;DHT22;8317;52.186;5.688;2023-07-29T09:26:35;20.20;99.90
16417;DHT22;8317;52.186;5.688;2023-07-29T09:29:02;20.40;99.90
16417;DHT22;8317;52.186;5.688;2023-07-29T09:31:29;20.70;99.90
16417;DHT22;8317;52.186;5.688;2023-07-29T09:33:56;20.90;99.90
16417;DHT22;8317;52.186;5.688;2023-07-29T09:36:24;20.90;99.90
16417;DHT22;8317;52.186;5.688;2023-07-29T09:38:53;20.70;99.90
16417;DHT22;8317;52.186;5.688;2023-07-29T09:41:23;20.60;99.90
16417;DHT22;8317;52.186;5.688;2023-07-29T09:43:56;20.50;99.90
16417;DHT22;8317;52.186;5.688;2023-07-29T09:46:24;20.80;99.90
16417;DHT22;8317;52.186;5.688;2023-07-29T09:48:54;20.90;99.90
16417;DHT22;8317;52.186;5.688;2023-07-29T09:51:23;20.90;99.90
16417;DHT22;8317;52.186;5.688;2023-07-29T09:53:51;20.90;99.90
16417;DHT22;8317;52.186;5.688;2023-07-29T09:56:18;20.90;99.90
16417;DHT22;8317;52.186;5.688;2023-07-29T09:58:51;20.70;99.90
16417;DHT22;8317;52.186;5.688;2023-07-29T10:01:18;20.70;99.90
16417;DHT22;8317;52.186;5.688;2023-07-29T10:03:46;20.70;99.90
16417;DHT22;8317;52.186;5.688;2023-07-29T10:06:14;20.70;99.90
16417;DHT22;8317;52.186;5.688;2023-07-29T10:08:43;20.70;99.90
16417;DHT22;8317;52.186;5.688;2023-07-29T10:11:10;20.60;99.90
16417;DHT22;8317;52.186;5.688;2023-07-29T10:13:38;20.60;99.90
16417;DHT22;8317;52.186;5.688;2023-07-29T10:16:06;20.70;99.90
16417;DHT22;8317;52.186;5.688;2023-07-29T10:18:34;20.70;99.90
16417;DHT22;8317;52.186;5.688;2023-07-29T10:21:02;20.70;99.90
16417;DHT22;8317;52.186;5.688;2023-07-29T10:23:38;20.60;99.90
16417;DHT22;8317;52.186;5.688;2023-07-29T10:26:10;20.50;99.90
16417;DHT22;8317;52.186;5.688;2023-07-29T10:28:40;20.40;99.90
16417;DHT22;8317;52.186;5.688;2023-07-29T10:31:09;20.20;99.90
16417;DHT22;8317;52.186;5.688;2023-07-29T10:33:37;19.90;99.90
16417;DHT22;8317;52.186;5.688;2023-07-29T10:36:05;19.80;99.90
16417;DHT22;8317;52.186;5.688;2023-07-29T10:38:32;19.80;99.90
16417;DHT22;8317;52.186;5.688;2023-07-29T10:40:59;19.70;99.90
16417;DHT22;8317;52.186;5.688;2023-07-29T10:43:29;19.60;99.90
16417;DHT22;8317;52.186;5.688;2023-07-29T10:46:14;19.50;99.90
16417;DHT22;8317;52.186;5.688;2023-07-29T10:48:44;19.50;99.90
16417;DHT22;8317;52.186;5.688;2023-07-29T10:51:25;19.60;99.90
16417;DHT22;8317;52.186;5.688;2023-07-29T10:53:53;19.60;99.90
16417;DHT22;8317;52.186;5.688;2023-07-29T10:56:28;19.70;99.90
16417;DHT22;8317;52.186;5.688;2023-07-29T10:58:57;19.90;99.90
16417;DHT22;8317;52.186;5.688;2023-07-29T11:01:27;19.80;99.90
16417;DHT22;8317;52.186;5.688;2023-07-29T11:04:24;19.90;99.90
16417;DHT22;8317;52.186;5.688;2023-07-29T11:07:26;20.00;99.90
16417;DHT22;8317;52.186;5.688;2023-07-29T11:10:02;20.00;99.90
16417;DHT22;8317;52.186;5.688;2023-07-29T11:12:43;20.00;99.90
16417;DHT22;8317;52.186;5.688;2023-07-29T11:15:19;20.00;99.90
16417;DHT22;8317;52.186;5.688;2023-07-29T11:17:48;20.10;99.90
16417;DHT22;8317;52.186;5.688;2023-07-29T11:20:18;20.20;99.90
16417;DHT22;8317;52.186;5.688;2023-07-29T11:22:45;20.20;99.90
16417;DHT22;8317;52.186;5.688;2023-07-29T11:25:14;20.30;99.90
16417;DHT22;8317;52.186;5.688;2023-07-29T11:27:41;20.30;99.90
16417;DHT22;8317;52.186;5.688;2023-07-29T11:30:10;20.40;99.90
16417;DHT22;8317;52.186;5.688;2023-07-29T11:32:38;20.50;99.90
16417;DHT22;8317;52.186;5.688;2023-07-29T11:35:06;20.60;99.90
16417;DHT22;8317;52.186;5.688;2023-07-29T11:37:35;20.60;99.90
16417;DHT22;8317;52.186;5.688;2023-07-29T11:40:03;20.50;99.90
16417;DHT22;8317;52.186;5.688;2023-07-29T11:42:32;20.50;99.90
16417;DHT22;8317;52.186;5.688;2023-07-29T11:44:59;20.40;99.90
16417;DHT22;8317;52.186;5.688;2023-07-29T11:47:26;20.30;99.90
16417;DHT22;8317;52.186;5.688;2023-07-29T11:49:53;20.30;99.90
16417;DHT22;8317;52.186;5.688;2023-07-29T11:52:20;20.20;99.90
16417;DHT22;8317;52.186;5.688;2023-07-29T11:54:49;20.00;99.90
16417;DHT22;8317;52.186;5.688;2023-07-29T11:57:17;19.90;99.90
16417;DHT22;8317;52.186;5.688;2023-07-29T11:59:45;19.80;99.90
16417;DHT22;8317;52.186;5.688;2023-07-29T12:02:14;19.80;99.90
16417;DHT22;8317;52.186;5.688;2023-07-29T12:04:43;19.70;99.90
16417;DHT22;8317;52.186;5.688;2023-07-29T12:07:11;19.60;99.90
16417;DHT22;8317;52.186;5.688;2023-07-29T12:09:39;19.60;99.90
16417;DHT22;8317;52.186;5.688;2023-07-29T12:12:08;19.50;99.90
16417;DHT22;8317;52.186;5.688;2023-07-29T12:14:35;19.50;99.90
16417;DHT22;8317;52.186;5.688;2023-07-29T12:17:04;19.50;99.90
16417;DHT22;8317;52.186;5.688;2023-07-29T12:19:32;19.60;99.90
16417;DHT22;8317;52.186;5.688;2023-07-29T12:22:00;19.70;99.90
16417;DHT22;8317;52.186;5.688;2023-07-29T12:24:29;20.10;99.90
16417;DHT22;8317;52.186;5.688;2023-07-29T12:26:56;20.30;99.90
16417;DHT22;8317;52.186;5.688;2023-07-29T12:29:24;20.60;99.90
16417;DHT22;8317;52.186;5.688;2023-07-29T12:31:58;20.70;99.90
16417;DHT22;8317;52.186;5.688;2023-07-29T12:34:26;20.70;99.90
16417;DHT22;8317;52.186;5.688;2023-07-29T12:36:55;20.80;99.90
16417;DHT22;8317;52.186;5.688;2023-07-29T12:39:23;20.90;99.90
16417;DHT22;8317;52.186;5.688;2023-07-29T12:41:51;21.20;99.90
16417;DHT22;8317;52.186;5.688;2023-07-29T12:44:18;21.50;99.90
16417;DHT22;8317;52.186;5.688;2023-07-29T12:46:46;21.70;99.90
16417;DHT22;8317;52.186;5.688;2023-07-29T12:49:13;22.00;99.90
16417;DHT22;8317;52.186;5.688;2023-07-29T12:51:40;22.10;99.90
16417;DHT22;8317;52.186;5.688;2023-07-29T12:54:07;21.90;99.90
16417;DHT22;8317;52.186;5.688;2023-07-29T12:56:34;21.90;99.90
16417;DHT22;8317;52.186;5.688;2023-07-29T12:59:02;21.90;99.90
16417;DHT22;8317;52.186;5.688;2023-07-29T13:01:29;22.00;99.90
16417;DHT22;8317;52.186;5.688;2023-07-29T13:03:57;21.90;99.90
16417;DHT22;8317;52.186;5.688;2023-07-29T13:06:24;21.70;99.90
16417;DHT22;8317;52.186;5.688;2023-07-29T13:08:51;21.60;99.90
16417;DHT22;8317;52.186;5.688;2023-07-29T13:11:18;21.60;99.90
16417;DHT22;8317;52.186;5.688;2023-07-29T13:13:45;21.50;99.90
16417;DHT22;8317;52.186;5.688;2023-07-29T13:16:12;21.40;99.90
16417;DHT22;8317;52.186;5.688;2023-07-29T13:18:39;21.50;99.90
16417;DHT22;8317;52.186;5.688;2023-07-29T13:21:07;21.80;99.90
16417;DHT22;8317;52.186;5.688;2023-07-29T13:23:34;22.10;99.90
16417;DHT22;8317;52.186;5.688;2023-07-29T13:26:01;22.20;99.90
16417;DHT22;8317;52.186;5.688;2023-07-29T13:28:28;22.30;99.90
16417;DHT22;8317;52.186;5.688;2023-07-29T13:30:55;22.40;99.90
16417;DHT22;8317;52.186;5.688;2023-07-29T13:33:22;22.40;99.90
16417;DHT22;8317;52.186;5.688;2023-07-29T13:35:49;22.40;99.90
16417;DHT22;8317;52.186;5.688;2023-07-29T13:38:17;22.60;99.90
16417;DHT22;8317;52.186;5.688;2023-07-29T13:40:45;22.70;99.90
16417;DHT22;8317;52.186;5.688;2023-07-29T13:43:12;22.80;99.90
16417;DHT22;8317;52.186;5.688;2023-07-29T13:45:39;22.60;99.90
16417;DHT22;8317;52.186;5.688;2023-07-29T13:48:06;22.20;99.90
16417;DHT22;8317;52.186;5.688;2023-07-29T13:50:33;22.20;99.90
16417;DHT22;8317;52.186;5.688;2023-07-29T13:53:00;22.10;99.90
16417;DHT22;8317;52.186;5.688;2023-07-29T13:55:28;22.00;99.90
16417;DHT22;8317;52.186;5.688;2023-07-29T13:57:55;22.10;99.90
16417;DHT22;8317;52.186;5.688;2023-07-29T14:00:22;22.00;99.90
16417;DHT22;8317;52.186;5.688;2023-07-29T14:02:49;22.10;99.90
16417;DHT22;8317;52.186;5.688;2023-07-29T14:05:16;22.30;99.90
16417;DHT22;8317;52.186;5.688;2023-07-29T14:07:43;22.20;99.90
16417;DHT22;8317;52.186;5.688;2023-07-29T14:10:09;22.30;99.90
16417;DHT22;8317;52.186;5.688;2023-07-29T14:12:38;22.20;99.90
16417;DHT22;8317;52.186;5.688;2023-07-29T14:15:06;22.30;99.90
16417;DHT22;8317;52.186;5.688;2023-07-29T14:17:33;22.50;99.90
16417;DHT22;8317;52.186;5.688;2023-07-29T14:20:00;22.70;99.90
16417;DHT22;8317;52.186;5.688;2023-07-29T14:22:28;22.80;99.90
16417;DHT22;8317;52.186;5.688;2023-07-29T14:24:54;22.90;99.90
16417;DHT22;8317;52.186;5.688;2023-07-29T14:27:21;23.00;99.90
16417;DHT22;8317;52.186;5.688;2023-07-29T14:29:50;23.00;99.90
16417;DHT22;8317;52.186;5.688;2023-07-29T14:32:16;23.20;99.90
16417;DHT22;8317;52.186;5.688;2023-07-29T14:34:43;23.30;99.90
16417;DHT22;8317;52.186;5.688;2023-07-29T14:37:10;23.30;99.90
16417;DHT22;8317;52.186;5.688;2023-07-29T14:39:37;23.30;99.90
16417;DHT22;8317;52.186;5.688;2023-07-29T14:42:04;23.30;99.90
16417;DHT22;8317;52.186;5.688;2023-07-29T14:44:32;23.40;99.90
16417;DHT22;8317;52.186;5.688;2023-07-29T14:47:00;23.30;99.90
16417;DHT22;8317;52.186;5.688;2023-07-29T14:49:27;23.40;99.90
16417;DHT22;8317;52.186;5.688;2023-07-29T14:51:54;23.30;99.90
16417;DHT22;8317;52.186;5.688;2023-07-29T14:54:21;23.00;99.90
16417;DHT22;8317;52.186;5.688;2023-07-29T14:56:48;23.00;99.90
16417;DHT22;8317;52.186;5.688;2023-07-29T14:59:14;23.00;99.90
16417;DHT22;8317;52.186;5.688;2023-07-29T15:01:41;22.80;99.90
16417;DHT22;8317;52.186;5.688;2023-07-29T15:04:10;22.80;99.90
16417;DHT22;8317;52.186;5.688;2023-07-29T15:06:37;23.00;99.90
16417;DHT22;8317;52.186;5.688;2023-07-29T15:09:04;23.10;99.90
16417;DHT22;8317;52.186;5.688;2023-07-29T15:11:32;23.30;99.90
16417;DHT22;8317;52.186;5.688;2023-07-29T15:13:59;23.60;99.90
16417;DHT22;8317;52.186;5.688;2023-07-29T15:16:26;23.60;99.90
16417;DHT22;8317;52.186;5.688;2023-07-29T15:18:53;23.40;99.90
16417;DHT22;8317;52.186;5.688;2023-07-29T15:21:21;23.30;99.90
16417;DHT22;8317;52.186;5.688;2023-07-29T15:23:48;23.00;99.90
16417;DHT22;8317;52.186;5.688;2023-07-29T15:26:15;22.90;99.90
16417;DHT22;8317;52.186;5.688;2023-07-29T15:28:42;22.80;99.90
16417;DHT22;8317;52.186;5.688;2023-07-29T15:31:09;22.60;99.90
16417;DHT22;8317;52.186;5.688;2023-07-29T15:33:36;22.60;99.90
16417;DHT22;8317;52.186;5.688;2023-07-29T15:36:03;22.60;99.90
16417;DHT22;8317;52.186;5.688;2023-07-29T15:38:32;22.70;99.90
16417;DHT22;8317;52.186;5.688;2023-07-29T15:40:59;22.80;99.90
16417;DHT22;8317;52.186;5.688;2023-07-29T15:43:26;23.00;99.90
16417;DHT22;8317;52.186;5.688;2023-07-29T15:45:53;23.10;99.90
16417;DHT22;8317;52.186;5.688;2023-07-29T15:48:20;23.10;99.90